Time;durP1;ratioP1;P1;durP2;ratioP2;P2;SDS_P1;SDS_P2;PMS_P1;PMS_P2;Temp;Humidity;BMP_temperature;BMP_pressure;BME280_temperature;BME280_humidity;BME280_pressure;Samples;Min_cycle;Max_cycle;Signal;HPM_P1;HPM_P2
2024/03/28 00:01:42;;;;;;;5.72;4.40;;;8.40;99.90;;;;;;4989778;28;20109;-58
2024/03/28 00:04:08;;;;;;;5.30;4.00;;;8.30;99.90;;;;;;4973213;28;20033;-55
2024/03/28 00:06:34;;;;;;;8.35;3.85;;;8.30;99.90;;;;;;4972611;28;20037;-59
2024/03/28 00:08:59;;;;;;;5.93;4.18;;;8.30;99.90;;;;;;4989657;28;20121;-55
2024/03/28 00:11:25;;;;;;;5.45;4.07;;;8.30;99.90;;;;;;4989814;28;20033;-59
2024/03/28 00:13:50;;;;;;;4.70;4.22;;;8.30;99.90;;;;;;4990470;28;20034;-57
2024/03/28 00:16:16;;;;;;;5.15;4.60;;;8.40;99.90;;;;;;4992359;28;20026;-55
2024/03/28 00:18:41;;;;;;;11.75;8.13;;;8.40;99.90;;;;;;4989796;28;20045;-59
2024/03/28 00:21:07;;;;;;;21.58;13.55;;;8.40;99.90;;;;;;4972037;28;20026;-60
2024/03/28 00:23:32;;;;;;;22.27;16.33;;;8.40;99.90;;;;;;4989209;28;20073;-57
2024/03/28 00:25:59;;;;;;;11.95;6.45;;;8.40;99.90;;;;;;4972951;28;20049;-59
2024/03/28 00:28:25;;;;;;;5.45;4.93;;;8.40;99.90;;;;;;4989759;28;20081;-57
2024/03/28 00:30:51;;;;;;;5.20;4.70;;;8.40;99.90;;;;;;4989879;28;20033;-56
2024/03/28 00:33:17;;;;;;;5.47;4.97;;;8.40;99.90;;;;;;4971771;28;20026;-59
2024/03/28 00:35:47;;;;;;;7.03;4.90;;;8.40;99.90;;;;;;4992616;22;20069;-55
2024/03/28 00:38:14;;;;;;;5.22;4.72;;;8.40;99.90;;;;;;4955775;28;20026;-55
2024/03/28 00:40:47;;;;;;;5.50;5.00;;;8.40;99.90;;;;;;4972962;28;20077;-54
2024/03/28 00:43:13;;;;;;;6.07;5.45;;;8.40;99.90;;;;;;4972891;28;20098;-50
2024/03/28 00:45:38;;;;;;;8.07;5.53;;;8.40;99.90;;;;;;4972203;28;20114;-51
2024/03/28 00:48:05;;;;;;;6.80;4.70;;;8.30;99.90;;;;;;4973098;28;20042;-51
2024/03/28 00:50:31;;;;;;;7.80;5.75;;;8.20;99.90;;;;;;4955498;28;20034;-50
2024/03/28 00:52:56;;;;;;;7.10;5.70;;;8.20;99.90;;;;;;4972821;28;20097;-51
2024/03/28 00:55:22;;;;;;;7.15;5.70;;;8.20;99.90;;;;;;4955354;28;20114;-55
2024/03/28 00:57:47;;;;;;;7.13;5.47;;;8.20;99.90;;;;;;4972898;28;20023;-56
2024/03/28 01:00:14;;;;;;;8.85;5.55;;;8.10;99.90;;;;;;4955296;28;20391;-51
2024/03/28 01:02:42;;;;;;;7.80;6.35;;;;;;;;;;4972479;28;20074;-56
2024/03/28 01:05:07;;;;;;;9.35;6.28;;;8.10;99.90;;;;;;4972433;28;20033;-52
2024/03/28 01:07:34;;;;;;;5.93;5.20;;;8.10;99.90;;;;;;4955308;28;20019;-52
2024/03/28 01:09:59;;;;;;;8.27;5.47;;;8.00;99.90;;;;;;4972587;28;20502;-52
2024/03/28 01:12:25;;;;;;;7.28;5.57;;;8.00;99.90;;;;;;4954916;28;20038;-53
2024/03/28 01:14:50;;;;;;;6.53;5.85;;;8.00;99.90;;;;;;4955322;28;20359;-56
2024/03/28 01:17:16;;;;;;;6.55;5.95;;;7.90;99.90;;;;;;4972623;28;20395;-51
2024/03/28 01:19:41;;;;;;;6.70;5.35;;;7.90;99.90;;;;;;4973419;28;20027;-51
2024/03/28 01:22:07;;;;;;;6.10;5.15;;;8.10;99.90;;;;;;4955047;28;20084;-55
2024/03/28 01:24:32;;;;;;;6.85;6.03;;;7.90;99.90;;;;;;4972912;28;20038;-50
2024/03/28 01:26:58;;;;;;;7.10;5.45;;;7.90;99.90;;;;;;4955202;28;20026;-51
2024/03/28 01:29:23;;;;;;;8.65;5.57;;;7.80;99.90;;;;;;4955329;28;20406;-52
2024/03/28 01:31:49;;;;;;;6.95;5.80;;;7.80;99.90;;;;;;4954863;28;20033;-52
2024/03/28 01:34:15;;;;;;;6.35;5.30;;;7.70;99.90;;;;;;4955000;28;20038;-53
2024/03/28 01:36:40;;;;;;;5.65;5.15;;;7.70;99.90;;;;;;4972475;28;20498;-51
2024/03/28 01:39:06;;;;;;;6.90;5.43;;;7.70;99.90;;;;;;4954709;28;20155;-53
2024/03/28 01:41:31;;;;;;;6.55;5.60;;;7.70;99.90;;;;;;4972053;28;20031;-58
2024/03/28 01:43:57;;;;;;;5.78;5.28;;;7.60;99.90;;;;;;4955427;28;20398;-53
2024/03/28 01:46:23;;;;;;;6.32;5.25;;;7.60;99.90;;;;;;4972436;28;20030;-51
2024/03/28 01:48:50;;;;;;;6.20;5.13;;;7.60;99.90;;;;;;4955146;28;20446;-54
2024/03/28 01:51:18;;;;;;;5.85;5.35;;;7.60;99.90;;;;;;4954893;28;20031;-55
2024/03/28 01:53:46;;;;;;;6.63;5.38;;;7.60;99.90;;;;;;4972580;28;20339;-53
2024/03/28 01:56:12;;;;;;;6.75;5.05;;;7.60;99.90;;;;;;4973737;28;20045;-49
2024/03/28 01:58:38;;;;;;;5.85;5.28;;;7.60;99.90;;;;;;4958274;28;20022;-54
2024/03/28 02:01:04;;;;;;;9.63;5.95;;;7.60;99.90;;;;;;4975795;28;20031;-51
2024/03/28 02:03:29;;;;;;;7.18;5.25;;;7.60;99.90;;;;;;4958169;28;20038;-54
2024/03/28 02:05:55;;;;;;;6.53;5.22;;;7.60;99.90;;;;;;4958417;28;20389;-49
2024/03/28 02:08:21;;;;;;;6.13;5.00;;;7.40;99.90;;;;;;4976107;28;20034;-51
2024/03/28 02:10:46;;;;;;;7.25;5.53;;;7.50;99.90;;;;;;4975718;28;20552;-51
2024/03/28 02:13:12;;;;;;;6.28;5.15;;;7.50;99.90;;;;;;4957947;28;20371;-49
2024/03/28 02:15:38;;;;;;;5.60;4.97;;;7.40;99.90;;;;;;4975436;28;20490;-49
2024/03/28 02:18:04;;;;;;;7.60;5.10;;;7.40;99.90;;;;;;4958246;28;20027;-48
2024/03/28 02:20:30;;;;;;;5.20;4.63;;;7.40;99.90;;;;;;4974969;28;20031;-49
2024/03/28 02:22:55;;;;;;;5.78;5.13;;;7.30;99.90;;;;;;4975113;28;20544;-49
2024/03/28 02:25:21;;;;;;;7.13;5.25;;;7.30;99.90;;;;;;4975293;28;20069;-50
2024/03/28 02:27:47;;;;;;;7.18;5.53;;;7.30;99.90;;;;;;4975556;28;20455;-50
2024/03/28 02:30:13;;;;;;;6.00;4.32;;;7.20;99.90;;;;;;4975490;28;20027;-49
2024/03/28 02:32:38;;;;;;;4.63;4.22;;;7.20;99.90;;;;;;4974903;28;20065;-49
2024/03/28 02:35:05;;;;;;;5.53;4.60;;;7.20;99.90;;;;;;4957776;28;20067;-48
2024/03/28 02:37:31;;;;;;;4.63;4.22;;;7.10;99.90;;;;;;4957749;28;20030;-51
2024/03/28 02:39:57;;;;;;;5.35;4.57;;;7.00;99.90;;;;;;4975044;28;20102;-48
2024/03/28 02:42:22;;;;;;;10.60;5.05;;;7.00;99.90;;;;;;4974753;28;20114;-54
2024/03/28 02:44:48;;;;;;;7.38;4.38;;;6.90;99.90;;;;;;4957501;28;20089;-50
2024/03/28 02:47:14;;;;;;;5.03;4.60;;;6.90;99.90;;;;;;4975382;28;20022;-49
2024/03/28 02:49:40;;;;;;;4.97;4.50;;;6.90;99.90;;;;;;4974888;28;20031;-55
2024/03/28 02:52:06;;;;;;;7.70;4.80;;;6.80;99.90;;;;;;4974533;28;20041;-50
2024/03/28 02:54:32;;;;;;;6.72;4.40;;;6.70;99.90;;;;;;4957346;28;20030;-55
2024/03/28 02:57:04;;;;;;;6.88;4.95;;;6.70;99.90;;;;;;4974395;28;20035;-53
2024/03/28 02:59:30;;;;;;;5.90;3.95;;;6.70;99.90;;;;;;4974376;28;20038;-53
2024/03/28 03:01:56;;;;;;;6.95;4.90;;;6.70;99.90;;;;;;4974225;28;20271;-49
2024/03/28 03:04:22;;;;;;;4.38;3.97;;;6.60;99.90;;;;;;4957095;28;20030;-49
2024/03/28 03:06:47;;;;;;;4.57;3.92;;;6.60;99.90;;;;;;4974243;28;20023;-51
2024/03/28 03:09:13;;;;;;;5.88;4.80;;;6.70;99.90;;;;;;4973742;28;20033;-50
2024/03/28 03:11:38;;;;;;;4.72;4.30;;;6.70;99.90;;;;;;4974060;28;20522;-55
2024/03/28 03:14:04;;;;;;;8.15;3.92;;;6.60;99.90;;;;;;4974407;28;20526;-55
2024/03/28 03:16:30;;;;;;;8.13;4.35;;;6.60;99.90;;;;;;4974391;28;20030;-50
2024/03/28 03:18:56;;;;;;;7.10;4.80;;;6.70;99.90;;;;;;4974570;28;20058;-52
2024/03/28 03:21:21;;;;;;;6.70;4.47;;;6.70;99.90;;;;;;4973968;28;20070;-54
2024/03/28 03:23:49;;;;;;;5.45;4.32;;;6.70;99.90;;;;;;4974381;28;20031;-55
2024/03/28 03:26:24;;;;;;;5.13;4.22;;;6.70;99.90;;;;;;4974226;28;20019;-56
2024/03/28 03:34:36;;;;;;;4.75;4.28;;;6.50;99.90;;;;;;4973599;28;20521;-57
2024/03/28 03:37:15;;;;;;;5.88;4.20;;;6.50;99.90;;;;;;4974177;28;20041;-51
2024/03/28 03:39:41;;;;;;;4.55;4.15;;;6.50;99.90;;;;;;4973913;28;20106;-53
2024/03/28 03:42:08;;;;;;;4.65;4.10;;;6.50;99.90;;;;;;4956150;28;20450;-49
2024/03/28 03:44:34;;;;;;;5.40;4.55;;;6.50;99.90;;;;;;4973839;28;20051;-57
2024/03/28 03:46:59;;;;;;;6.60;4.75;;;6.40;99.90;;;;;;4974081;28;20109;-49
2024/03/28 03:49:25;;;;;;;5.45;4.45;;;6.40;99.90;;;;;;4973878;28;20217;-54
2024/03/28 03:51:51;;;;;;;6.50;4.95;;;6.40;99.90;;;;;;4973903;28;20556;-52
2024/03/28 03:54:16;;;;;;;5.40;3.78;;;6.40;99.90;;;;;;4973961;28;20031;-52
2024/03/28 03:56:42;;;;;;;5.03;4.15;;;6.40;99.90;;;;;;4974118;28;20030;-49
2024/03/28 03:59:07;;;;;;;5.65;3.97;;;6.40;99.90;;;;;;4955870;28;20027;-53
2024/03/28 04:01:33;;;;;;;4.18;3.78;;;6.30;99.90;;;;;;4973263;28;20038;-55
2024/03/28 04:03:58;;;;;;;5.95;4.43;;;6.30;99.90;;;;;;4973651;28;20649;-56
2024/03/28 04:06:24;;;;;;;5.40;4.30;;;6.30;99.90;;;;;;4973579;28;20094;-49
2024/03/28 04:08:50;;;;;;;5.10;4.60;;;6.30;99.90;;;;;;4973317;28;20022;-54
2024/03/28 04:11:16;;;;;;;6.53;4.40;;;6.30;99.90;;;;;;4972891;28;20031;-49
2024/03/28 04:13:41;;;;;;;6.63;4.78;;;6.20;99.90;;;;;;4973640;28;20117;-49
2024/03/28 04:16:07;;;;;;;4.88;3.85;;;6.20;99.90;;;;;;4973289;28;20035;-59
2024/03/28 04:18:32;;;;;;;8.50;4.20;;;6.30;99.90;;;;;;4973247;28;20035;-52
2024/03/28 04:20:58;;;;;;;4.85;3.92;;;6.20;99.90;;;;;;4973160;28;20069;-55
2024/03/28 04:23:24;;;;;;;5.28;3.75;;;6.20;99.90;;;;;;4973048;28;20398;-54
2024/03/28 04:25:56;;;;;;;4.78;3.83;;;6.20;99.90;;;;;;4973025;28;20434;-54
2024/03/28 04:28:22;;;;;;;4.85;3.72;;;6.30;99.90;;;;;;4973352;28;20058;-51
2024/03/28 04:30:47;;;;;;;6.25;3.88;;;6.20;99.90;;;;;;4973075;28;20189;-53
2024/03/28 04:33:13;;;;;;;4.35;3.95;;;6.20;99.90;;;;;;4972863;28;20594;-51
2024/03/28 04:35:40;;;;;;;4.60;4.10;;;6.20;99.90;;;;;;4972720;28;20126;-52
2024/03/28 04:38:06;;;;;;;4.93;3.25;;;6.20;99.90;;;;;;4972886;28;20034;-51
2024/03/28 04:40:32;;;;;;;6.55;4.22;;;6.30;99.90;;;;;;4972712;28;20035;-56
2024/03/28 04:42:57;;;;;;;5.28;3.88;;;6.30;99.90;;;;;;4972676;28;20037;-54
2024/03/28 04:45:23;;;;;;;4.55;3.47;;;6.20;99.90;;;;;;4972547;28;20401;-52
2024/03/28 04:47:49;;;;;;;3.67;3.38;;;6.20;99.90;;;;;;4972839;28;20031;-54
2024/03/28 04:50:16;;;;;;;5.03;4.03;;;6.20;99.90;;;;;;4972796;28;20026;-55
2024/03/28 04:52:42;;;;;;;8.82;4.10;;;6.20;99.90;;;;;;4972505;28;20110;-53
2024/03/28 04:55:07;;;;;;;5.68;4.28;;;6.10;99.90;;;;;;4972733;28;20542;-53
2024/03/28 04:57:34;;;;;;;5.53;3.50;;;6.10;99.90;;;;;;4972690;28;20140;-55
2024/03/28 05:00:00;;;;;;;4.93;3.17;;;6.10;99.90;;;;;;4972564;28;20409;-52
2024/03/28 05:02:25;;;;;;;3.40;3.03;;;6.10;99.90;;;;;;4955014;28;20027;-52
2024/03/28 05:04:51;;;;;;;3.38;3.00;;;6.10;99.90;;;;;;4972511;28;20026;-52
2024/03/28 05:07:17;;;;;;;4.88;2.75;;;6.20;99.90;;;;;;4955157;28;20027;-55
2024/03/28 05:09:46;;;;;;;3.95;3.60;;;6.20;99.90;;;;;;4972557;28;20027;-52
2024/03/28 05:12:12;;;;;;;4.10;3.47;;;6.20;99.90;;;;;;4972302;28;20046;-54
2024/03/28 05:14:37;;;;;;;4.25;3.05;;;6.10;99.90;;;;;;4972440;28;20027;-53
2024/03/28 05:17:03;;;;;;;4.85;3.15;;;6.10;99.90;;;;;;4972526;28;20406;-52
2024/03/28 05:19:28;;;;;;;4.75;3.05;;;6.00;99.90;;;;;;4972312;28;20105;-52
2024/03/28 05:21:54;;;;;;;5.78;3.22;;;6.00;99.90;;;;;;4972369;28;20031;-54
2024/03/28 05:24:19;;;;;;;3.03;2.55;;;6.10;99.90;;;;;;4972504;28;20027;-53
2024/03/28 05:26:45;;;;;;;2.92;2.50;;;6.00;99.90;;;;;;4972577;28;20031;-52
2024/03/28 05:29:11;;;;;;;4.45;2.60;;;6.10;99.90;;;;;;4972455;28;20390;-54
2024/03/28 05:31:37;;;;;;;6.13;3.15;;;6.20;99.90;;;;;;4973874;28;20031;-52
2024/03/28 05:34:03;;;;;;;4.10;2.85;;;6.20;99.90;;;;;;4958852;28;20037;-52
2024/03/28 05:36:28;;;;;;;4.85;2.33;;;6.30;99.90;;;;;;4976027;28;20086;-52
2024/03/28 05:38:53;;;;;;;3.03;2.70;;;6.40;99.90;;;;;;4958796;28;20034;-56
2024/03/28 05:41:19;;;;;;;3.33;2.90;;;6.60;99.90;;;;;;4975766;28;20482;-53
2024/03/28 05:43:44;;;;;;;3.65;3.00;;;7.00;99.90;;;;;;4976534;28;20019;-50
2024/03/28 05:46:10;;;;;;;4.55;2.40;;;7.40;99.90;;;;;;4975802;28;20078;-56
2024/03/28 05:48:35;;;;;;;3.08;2.40;;;7.70;99.90;;;;;;4975933;28;20061;-50
2024/03/28 05:51:01;;;;;;;4.65;2.80;;;7.90;99.90;;;;;;4975831;28;20438;-55
2024/03/28 05:53:26;;;;;;;3.22;2.25;;;8.00;99.90;;;;;;4958301;28;20121;-55
2024/03/28 05:55:52;;;;;;;3.35;2.20;;;8.10;99.90;;;;;;4975482;28;20486;-51
2024/03/28 05:58:17;;;;;;;3.83;2.45;;;8.30;99.90;;;;;;4975780;28;20041;-54
2024/03/28 06:00:43;;;;;;;2.83;1.98;;;8.50;99.90;;;;;;4975768;28;20406;-54
2024/03/28 06:03:08;;;;;;;3.03;2.28;;;9.00;99.90;;;;;;4975723;28;20042;-50
2024/03/28 06:05:34;;;;;;;3.97;2.10;;;9.10;99.90;;;;;;4958196;28;20343;-51
2024/03/28 06:08:00;;;;;;;3.45;2.45;;;9.00;99.90;;;;;;4975810;28;20117;-51
2024/03/28 06:10:26;;;;;;;3.03;2.83;;;8.90;99.90;;;;;;4975549;28;20037;-52
2024/03/28 06:12:51;;;;;;;2.67;2.40;;;8.80;99.90;;;;;;4975186;28;20027;-53
2024/03/28 06:15:17;;;;;;;2.58;2.33;;;8.80;99.90;;;;;;4975512;28;20501;-56
2024/03/28 06:17:43;;;;;;;2.20;2.05;;;8.90;99.90;;;;;;4975508;28;20039;-49
2024/03/28 06:20:10;;;;;;;2.55;2.30;;;9.10;99.90;;;;;;4975374;28;20528;-52
2024/03/28 06:22:35;;;;;;;4.45;2.58;;;9.30;99.90;;;;;;4975424;28;20023;-58
2024/03/28 06:25:01;;;;;;;3.45;2.75;;;9.30;99.90;;;;;;4975442;28;20073;-56
2024/03/28 06:27:27;;;;;;;4.35;2.70;;;9.20;99.90;;;;;;4975414;28;20090;-56
2024/03/28 06:29:52;;;;;;;3.17;2.60;;;8.90;99.90;;;;;;4975190;28;20482;-56
2024/03/28 06:32:24;;;;;;;3.22;2.78;;;8.70;99.90;;;;;;4974909;28;20063;-54
2024/03/28 06:34:57;;;;;;;5.00;3.05;;;8.70;99.90;;;;;;4995412;23;20047;-49
2024/03/28 06:37:23;;;;;;;2.97;2.42;;;8.90;99.90;;;;;;4975476;28;20488;-50
2024/03/28 06:39:49;;;;;;;3.30;3.00;;;9.60;99.90;;;;;;4975339;28;20048;-46
2024/03/28 06:42:16;;;;;;;3.95;2.65;;;9.80;99.90;;;;;;4975034;28;20038;-48
2024/03/28 06:44:45;;;;;;;2.85;2.60;;;9.90;99.90;;;;;;4975360;28;20026;-48
2024/03/28 06:47:11;;;;;;;6.22;2.88;;;9.60;99.90;;;;;;4957855;28;20394;-47
2024/03/28 06:49:36;;;;;;;5.35;2.30;;;9.20;99.90;;;;;;4975090;28;20048;-48
2024/03/28 06:52:02;;;;;;;6.72;2.35;;;9.00;99.90;;;;;;4957530;28;20026;-46
2024/03/28 06:54:27;;;;;;;3.78;2.67;;;8.80;99.90;;;;;;4975155;28;20042;-51
2024/03/28 06:56:53;;;;;;;5.78;2.55;;;8.60;99.90;;;;;;4974881;28;20031;-47
2024/03/28 06:59:19;;;;;;;3.20;2.90;;;8.40;99.90;;;;;;4974555;28;20031;-46
2024/03/28 07:01:45;;;;;;;2.97;2.67;;;8.10;99.90;;;;;;4974529;28;20042;-45
2024/03/28 07:04:11;;;;;;;3.80;3.08;;;7.90;99.90;;;;;;4974754;28;20407;-46
2024/03/28 07:06:37;;;;;;;3.45;2.60;;;7.90;99.90;;;;;;4974749;28;20026;-48
2024/03/28 07:09:02;;;;;;;5.07;2.25;;;7.80;99.90;;;;;;4957029;28;20042;-50
2024/03/28 07:11:28;;;;;;;2.70;2.30;;;7.80;99.90;;;;;;4974506;28;20031;-48
2024/03/28 07:13:53;;;;;;;2.78;2.47;;;7.80;99.90;;;;;;4974477;28;20035;-49
2024/03/28 07:16:19;;;;;;;3.17;2.90;;;7.70;99.90;;;;;;4974553;28;20031;-48
2024/03/28 07:18:45;;;;;;;3.10;2.28;;;7.70;99.90;;;;;;4974855;28;20102;-48
2024/03/28 07:21:11;;;;;;;2.78;2.30;;;7.60;99.90;;;;;;4974373;28;20030;-47
2024/03/28 07:23:41;;;;;;;2.50;2.30;;;7.60;99.90;;;;;;4974367;28;20038;-46
2024/03/28 07:26:08;;;;;;;3.03;2.33;;;7.70;99.90;;;;;;4974507;28;20043;-49
2024/03/28 07:28:33;;;;;;;2.70;2.50;;;7.70;99.90;;;;;;4957082;28;20027;-46
2024/03/28 07:30:59;;;;;;;3.95;2.10;;;7.70;99.90;;;;;;4974207;28;20101;-49
2024/03/28 07:33:25;;;;;;;2.83;2.55;;;7.60;99.90;;;;;;4973888;28;20043;-46
2024/03/28 07:35:51;;;;;;;2.42;2.22;;;7.60;99.90;;;;;;4974115;28;20117;-49
2024/03/28 07:38:19;;;;;;;3.05;2.28;;;7.50;99.90;;;;;;4974392;28;20085;-47
2024/03/28 07:40:49;;;;;;;2.90;2.63;;;7.50;99.90;;;;;;4973831;28;20042;-46
2024/03/28 07:43:15;;;;;;;2.40;2.20;;;7.50;99.90;;;;;;4973382;28;20027;-43
2024/03/28 07:45:41;;;;;;;2.55;1.90;;;7.40;99.90;;;;;;4974154;28;20495;-47
2024/03/28 07:48:08;;;;;;;3.05;2.13;;;7.30;99.90;;;;;;4973923;28;20106;-46
2024/03/28 07:50:33;;;;;;;3.25;1.92;;;7.30;99.90;;;;;;4973863;28;20402;-46
2024/03/28 07:52:59;;;;;;;2.10;2.00;;;7.30;99.90;;;;;;4973553;28;20048;-47
2024/03/28 07:55:25;;;;;;;5.30;1.85;;;7.20;99.90;;;;;;4973472;28;20034;-50
2024/03/28 07:57:51;;;;;;;2.10;1.83;;;7.30;99.90;;;;;;4973661;28;20086;-47
2024/03/28 08:00:17;;;;;;;4.30;2.40;;;7.30;99.90;;;;;;4973267;28;20034;-45
2024/03/28 08:02:44;;;;;;;2.55;2.10;;;7.30;99.90;;;;;;4973351;28;20030;-48
2024/03/28 08:05:11;;;;;;;2.90;2.55;;;7.20;99.90;;;;;;4973514;28;20043;-50
2024/03/28 08:07:36;;;;;;;3.42;2.63;;;7.30;99.90;;;;;;4973472;28;20058;-45
2024/03/28 08:10:02;;;;;;;5.55;2.65;;;7.30;99.90;;;;;;4973439;28;20058;-45
2024/03/28 08:12:28;;;;;;;4.03;2.60;;;7.30;99.90;;;;;;4973312;28;20450;-46
2024/03/28 08:14:54;;;;;;;2.70;2.25;;;7.30;99.90;;;;;;4973258;28;20027;-50
2024/03/28 08:17:19;;;;;;;4.40;3.15;;;7.30;99.90;;;;;;4973214;28;20515;-46
2024/03/28 08:19:45;;;;;;;3.97;2.80;;;7.40;99.90;;;;;;4973541;28;20081;-48
2024/03/28 08:22:11;;;;;;;4.80;2.75;;;7.50;99.90;;;;;;4973021;28;20031;-49
2024/03/28 08:24:37;;;;;;;4.22;3.47;;;7.60;99.90;;;;;;4956259;28;20030;-50
2024/03/28 08:27:04;;;;;;;5.05;2.83;;;7.70;99.90;;;;;;4974158;28;20105;-47
2024/03/28 08:29:29;;;;;;;3.78;3.17;;;7.80;99.90;;;;;;4955844;28;20431;-51
2024/03/28 08:31:55;;;;;;;4.38;2.83;;;7.90;99.90;;;;;;4972941;28;20069;-50
2024/03/28 08:34:22;;;;;;;6.30;3.63;;;8.00;99.90;;;;;;4973088;28;20031;-48
2024/03/28 08:36:47;;;;;;;3.28;2.78;;;8.00;99.90;;;;;;4972844;28;20629;-47
2024/03/28 08:39:13;;;;;;;2.80;2.30;;;8.00;99.90;;;;;;4973251;28;20085;-47
2024/03/28 08:41:40;;;;;;;3.10;2.38;;;7.90;99.90;;;;;;4972573;28;20027;-48
2024/03/28 08:44:08;;;;;;;3.58;2.25;;;7.80;99.90;;;;;;4972967;28;20042;-50
2024/03/28 08:46:34;;;;;;;4.00;2.00;;;7.80;99.90;;;;;;4955671;28;20486;-45
2024/03/28 08:49:00;;;;;;;2.65;2.45;;;7.90;99.90;;;;;;4955474;28;20027;-47
2024/03/28 08:51:26;;;;;;;4.68;2.92;;;8.10;99.90;;;;;;4972591;28;20110;-47
2024/03/28 08:53:52;;;;;;;5.25;2.50;;;8.20;99.90;;;;;;4972733;28;20023;-48
2024/03/28 08:56:20;;;;;;;3.72;2.22;;;8.30;99.90;;;;;;4972413;28;20437;-46
2024/03/28 08:58:45;;;;;;;2.45;2.20;;;8.30;99.90;;;;;;4972706;28;20114;-50
2024/03/28 09:01:13;;;;;;;4.35;2.53;;;8.30;99.90;;;;;;4954925;28;20118;-51
2024/03/28 09:03:38;;;;;;;2.35;2.05;;;8.20;99.90;;;;;;4972950;28;20474;-46
2024/03/28 09:06:09;;;;;;;2.88;2.63;;;8.20;99.90;;;;;;4973790;28;20131;-48
2024/03/28 09:08:35;;;;;;;2.72;2.53;;;8.20;99.90;;;;;;4976816;28;20027;-46
2024/03/28 09:11:01;;;;;;;4.75;2.30;;;8.20;99.90;;;;;;4976842;28;20074;-46
2024/03/28 09:13:26;;;;;;;3.22;2.25;;;8.10;99.90;;;;;;4976842;28;20026;-45
2024/03/28 09:15:52;;;;;;;2.72;2.30;;;8.10;99.90;;;;;;4976709;28;20027;-44
2024/03/28 09:18:17;;;;;;;6.40;2.60;;;8.20;99.90;;;;;;4959187;28;20023;-42
2024/03/28 09:20:45;;;;;;;2.78;2.58;;;8.10;99.90;;;;;;4976699;28;20454;-44
2024/03/28 09:23:11;;;;;;;3.72;2.40;;;8.10;99.90;;;;;;4976313;28;20105;-45
2024/03/28 09:25:36;;;;;;;3.00;2.58;;;8.10;99.90;;;;;;4976338;28;20439;-47
2024/03/28 09:28:02;;;;;;;4.05;2.65;;;8.20;99.90;;;;;;4976689;28;20029;-44
2024/03/28 09:30:28;;;;;;;4.78;2.75;;;8.20;99.90;;;;;;4976767;28;20027;-49
2024/03/28 09:32:54;;;;;;;4.78;2.88;;;8.20;99.90;;;;;;4976101;28;20105;-46
2024/03/28 09:35:20;;;;;;;6.95;2.55;;;8.20;99.90;;;;;;4976606;28;20457;-47
2024/03/28 09:37:46;;;;;;;2.40;2.20;;;8.30;99.90;;;;;;4976406;28;20030;-49
2024/03/28 09:40:13;;;;;;;2.80;2.38;;;8.30;99.90;;;;;;4976270;28;20389;-47
2024/03/28 09:42:44;;;;;;;3.08;2.72;;;8.40;99.90;;;;;;4976656;28;20086;-49
2024/03/28 09:45:12;;;;;;;2.40;2.30;;;8.40;99.90;;;;;;4976128;28;20086;-47
2024/03/28 09:47:38;;;;;;;3.30;2.30;;;8.60;99.90;;;;;;4976264;28;20022;-45
2024/03/28 09:50:08;;;;;;;2.22;2.03;;;8.70;99.90;;;;;;4976364;28;20023;-47
2024/03/28 09:52:33;;;;;;;2.85;2.55;;;8.90;99.90;;;;;;4975808;28;20510;-48
2024/03/28 09:54:59;;;;;;;2.47;2.28;;;9.00;99.90;;;;;;4975926;28;20058;-50
2024/03/28 09:57:25;;;;;;;2.50;2.10;;;9.20;99.90;;;;;;4975816;28;20077;-48
2024/03/28 09:59:50;;;;;;;4.20;2.35;;;9.40;99.90;;;;;;4975482;28;20081;-47
2024/03/28 10:02:19;;;;;;;2.00;1.90;;;9.60;99.90;;;;;;4957963;28;20031;-45
2024/03/28 10:04:53;;;;;;;2.67;1.70;;;9.70;99.90;;;;;;4975775;28;20623;-45
2024/03/28 10:07:20;;;;;;;3.05;1.83;;;10.00;99.90;;;;;;4975460;28;20034;-47
2024/03/28 10:09:46;;;;;;;4.40;1.88;;;10.20;99.90;;;;;;4975651;28;20022;-49
2024/03/28 10:12:12;;;;;;;3.13;2.30;;;10.20;99.90;;;;;;4975285;28;20347;-48
2024/03/28 10:14:39;;;;;;;1.92;1.83;;;10.30;99.90;;;;;;4975417;28;20034;-47
2024/03/28 10:17:06;;;;;;;1.58;1.48;;;10.40;99.90;;;;;;4975917;28;20027;-49
2024/03/28 10:19:33;;;;;;;2.10;1.73;;;10.50;99.90;;;;;;4975559;28;20031;-43
2024/03/28 10:22:06;;;;;;;3.08;1.98;;;10.50;99.90;;;;;;4975133;28;20110;-50
2024/03/28 10:24:33;;;;;;;1.73;1.63;;;10.60;99.90;;;;;;4975375;28;20027;-45
2024/03/28 10:26:59;;;;;;;1.20;1.20;;;10.60;99.90;;;;;;4975574;28;20046;-46
2024/03/28 10:29:29;;;;;;;1.50;1.15;;;10.60;99.90;;;;;;4976135;28;20042;-50
2024/03/28 10:32:03;;;;;;;2.10;1.30;;;10.60;99.90;;;;;;4975942;28;20030;-47
2024/03/28 10:34:30;;;;;;;1.35;1.25;;;10.50;99.90;;;;;;4975345;28;20034;-49
2024/03/28 10:37:03;;;;;;;1.67;1.15;;;10.40;99.90;;;;;;4974998;28;20047;-46
2024/03/28 10:39:29;;;;;;;0.93;0.90;;;10.40;99.90;;;;;;4975244;28;20030;-46
2024/03/28 10:41:55;;;;;;;1.73;0.75;;;10.40;99.90;;;;;;4957118;28;20125;-49
2024/03/28 10:44:21;;;;;;;0.38;0.38;;;10.50;99.90;;;;;;4974831;28;20033;-46
2024/03/28 10:46:48;;;;;;;0.68;0.52;;;10.60;99.90;;;;;;4974819;28;20465;-48
2024/03/28 10:49:14;;;;;;;0.55;0.55;;;10.60;99.90;;;;;;4957351;28;20026;-46
2024/03/28 10:51:49;;;;;;;0.43;0.43;;;10.80;99.90;;;;;;4957201;28;20069;-50
2024/03/28 10:54:22;;;;;;;3.40;0.40;;;11.00;99.90;;;;;;4975839;28;20114;-52
2024/03/28 10:56:48;;;;;;;3.72;1.45;;;11.80;99.90;;;;;;4976762;28;20113;-51
2024/03/28 10:59:16;;;;;;;1.40;0.30;;;11.80;99.90;;;;;;4968180;28;20086;-49
2024/03/28 11:01:41;;;;;;;0.40;0.40;;;11.90;99.90;;;;;;4994060;28;20101;-51
2024/03/28 11:04:11;;;;;;;2.30;0.40;;;11.80;99.90;;;;;;4984470;28;20043;-49
2024/03/28 11:06:37;;;;;;;4.30;0.40;;;11.50;99.90;;;;;;4993806;28;20022;-47
2024/03/28 11:09:03;;;;;;;1.80;0.40;;;11.30;99.90;;;;;;4977271;28;20485;-49
2024/03/28 11:11:30;;;;;;;1.90;0.50;;;11.20;99.90;;;;;;4994874;28;20031;-49
2024/03/28 11:13:57;;;;;;;1.20;0.68;;;11.10;99.90;;;;;;4997489;28;20018;-46
2024/03/28 11:16:23;;;;;;;1.35;0.50;;;11.00;99.90;;;;;;4995817;28;20038;-46
2024/03/28 11:18:50;;;;;;;5.93;1.65;;;10.60;99.90;;;;;;4994492;28;20123;-48
2024/03/28 11:21:25;;;;;;;0.28;0.28;;;10.40;99.90;;;;;;4991348;28;20027;-51
2024/03/28 11:23:53;;;;;;;1.83;1.52;;;10.10;99.90;;;;;;4955227;29;20027;-52
2024/03/28 11:26:23;;;;;;;6.93;2.33;;;9.90;99.90;;;;;;4969584;28;20041;-52
2024/03/28 11:29:02;;;;;;;0.55;0.55;;;9.70;99.90;;;;;;4993403;28;20031;-54
2024/03/28 11:31:28;;;;;;;0.95;0.30;;;9.60;99.90;;;;;;4976451;28;20117;-50
2024/03/28 11:34:05;;;;;;;0.30;0.30;;;9.50;99.90;;;;;;4975541;28;20158;-46
2024/03/28 11:36:32;;;;;;;0.70;0.43;;;9.50;99.90;;;;;;4971889;28;20038;-52
2024/03/28 11:38:59;;;;;;;2.25;0.40;;;9.50;99.90;;;;;;4967437;28;20096;-47
2024/03/28 11:41:26;;;;;;;1.27;1.00;;;9.80;99.90;;;;;;4979619;28;20125;-49
2024/03/28 11:43:53;;;;;;;2.60;0.50;;;10.10;99.90;;;;;;4983900;28;20034;-50
2024/03/28 11:46:28;;;;;;;1.75;0.30;;;10.40;99.90;;;;;;4991272;28;20046;-51
2024/03/28 11:48:58;;;;;;;0.50;0.50;;;10.70;99.90;;;;;;4983548;28;20023;-48
2024/03/28 11:51:23;;;;;;;0.95;0.60;;;10.90;99.90;;;;;;4984877;28;20512;-49
2024/03/28 11:53:49;;;;;;;1.75;0.40;;;11.10;99.90;;;;;;4979892;28;20034;-50
2024/03/28 11:56:18;;;;;;;0.60;0.60;;;11.00;99.90;;;;;;4991325;28;20085;-51
2024/03/28 11:58:44;;;;;;;0.20;0.20;;;11.10;99.90;;;;;;4992994;28;20030;-50
2024/03/28 12:01:10;;;;;;;0.20;0.20;;;11.10;99.90;;;;;;4992791;28;20039;-53
2024/03/28 12:03:36;;;;;;;0.30;0.30;;;11.10;99.90;;;;;;4974452;28;20371;-51
2024/03/28 12:06:02;;;;;;;0.52;0.40;;;11.00;99.90;;;;;;4972720;28;20513;-49
2024/03/28 12:08:30;;;;;;;2.65;0.40;;;10.90;99.90;;;;;;4975403;28;20026;-46
2024/03/28 12:11:04;;;;;;;1.17;0.40;;;10.80;99.90;;;;;;4977254;28;20046;-50
2024/03/28 12:13:30;;;;;;;0.50;0.50;;;10.80;99.90;;;;;;4990617;28;20414;-50
2024/03/28 12:16:06;;;;;;;0.40;0.35;;;10.90;99.90;;;;;;4992827;28;20031;-50
2024/03/28 12:18:35;;;;;;;1.50;0.57;;;11.10;99.90;;;;;;4992986;28;20060;-49
2024/03/28 12:21:02;;;;;;;3.78;0.30;;;11.20;99.90;;;;;;4972913;28;20035;-54
2024/03/28 12:23:28;;;;;;;0.30;0.30;;;11.20;99.90;;;;;;4972344;28;20043;-49
2024/03/28 12:25:54;;;;;;;0.85;0.30;;;11.10;99.90;;;;;;4975684;28;20085;-51
2024/03/28 12:28:22;;;;;;;0.40;0.40;;;11.10;99.90;;;;;;4989524;28;20038;-46
2024/03/28 12:30:51;;;;;;;1.85;0.50;;;11.10;99.90;;;;;;4992393;28;20034;-49
2024/03/28 12:33:17;;;;;;;0.20;0.20;;;11.10;99.90;;;;;;4992642;28;20045;-52
2024/03/28 12:35:44;;;;;;;1.05;0.50;;;11.20;99.90;;;;;;5005105;22;20073;-53
2024/03/28 12:38:17;;;;;;;0.45;0.25;;;11.20;99.90;;;;;;4969443;28;20023;-50
2024/03/28 12:40:47;;;;;;;3.30;0.40;;;11.30;99.90;;;;;;4984047;28;20113;-53
2024/03/28 12:43:18;;;;;;;0.52;0.40;;;11.40;99.90;;;;;;4956364;28;20027;-53
2024/03/28 12:45:44;;;;;;;0.85;0.40;;;11.50;99.90;;;;;;4954884;28;20449;-49
2024/03/28 12:48:10;;;;;;;3.60;1.90;;;11.50;99.90;;;;;;4972135;28;20158;-54
2024/03/28 12:50:37;;;;;;;0.88;0.88;;;11.50;99.90;;;;;;4955235;28;20081;-53
2024/03/28 12:53:04;;;;;;;1.20;0.60;;;11.50;99.90;;;;;;4972268;28;20447;-51
2024/03/28 12:55:29;;;;;;;0.50;0.50;;;11.60;99.90;;;;;;4972703;28;20383;-53
2024/03/28 12:57:55;;;;;;;1.73;0.50;;;11.60;99.90;;;;;;4972623;28;20033;-50